Time;durP1;ratioP1;P1;durP2;ratioP2;P2;SDS_P1;SDS_P2;PMS_P1;PMS_P2;Temp;Humidity;BMP_temperature;BMP_pressure;BME280_temperature;BME280_humidity;BME280_pressure;Samples;Min_cycle;Max_cycle;Signal;HPM_P1;HPM_P2
2024/01/04 00:01:21;;;;;;;24.00;15.37;;;-0.70;1.00;;;;;;10413286;28;20279;-79
2024/01/04 00:06:44;;;;;;;25.80;14.73;;;-0.80;1.00;;;;;;10433037;28;20234;-79
2024/01/04 00:12:05;;;;;;;22.13;13.57;;;-0.80;99.90;;;;;;10426398;28;20197;-77
2024/01/04 00:17:26;;;;;;;23.33;13.33;;;-0.80;99.90;;;;;;10417588;28;20233;-78
2024/01/04 00:22:48;;;;;;;28.03;14.97;;;-0.80;1.00;;;;;;10396289;28;20257;-78
2024/01/04 00:28:09;;;;;;;24.57;14.00;;;-0.80;99.90;;;;;;10425057;28;20388;-77
2024/01/04 00:33:30;;;;;;;25.10;14.13;;;-0.80;1.00;;;;;;10429638;28;20211;-78
2024/01/04 00:38:51;;;;;;;21.27;13.00;;;-0.80;1.00;;;;;;10430028;28;20195;-78
2024/01/04 00:44:12;;;;;;;22.00;12.90;;;-0.80;1.00;;;;;;10439173;28;20223;-77
2024/01/04 00:49:34;;;;;;;24.77;12.83;;;-0.80;99.90;;;;;;10422632;28;20192;-77
2024/01/04 00:54:56;;;;;;;24.10;13.70;;;-0.80;1.00;;;;;;10425466;28;20230;-77
2024/01/04 01:00:17;;;;;;;19.33;12.03;;;-0.80;99.90;;;;;;10411622;28;20209;-78
2024/01/04 01:05:39;;;;;;;19.57;12.17;;;-0.90;1.00;;;;;;10427467;28;20218;-78
2024/01/04 01:11:01;;;;;;;20.60;11.50;;;-0.90;99.90;;;;;;10448330;28;20199;-77
2024/01/04 01:16:22;;;;;;;18.57;11.27;;;-0.90;1.00;;;;;;10451543;28;20224;-77
2024/01/04 01:21:44;;;;;;;16.53;10.67;;;-0.80;1.00;;;;;;10415490;28;20274;-77
2024/01/04 01:27:05;;;;;;;17.87;11.07;;;-0.90;1.00;;;;;;10426338;28;20402;-76
2024/01/04 01:32:27;;;;;;;18.93;11.53;;;-0.90;61.80;;;;;;10414504;28;20498;-79
2024/01/04 01:37:48;;;;;;;20.07;11.20;;;-0.80;1.00;;;;;;10430207;28;20486;-77
2024/01/04 01:43:11;;;;;;;18.10;11.00;;;-0.90;1.00;;;;;;10385028;28;20284;-77
2024/01/04 01:48:32;;;;;;;19.37;11.23;;;-1.00;99.90;;;;;;10429435;28;20237;-77
2024/01/04 01:53:55;;;;;;;18.33;11.17;;;-1.00;99.90;;;;;;10413177;28;20247;-77
2024/01/04 01:59:16;;;;;;;17.83;11.20;;;-0.80;1.00;;;;;;10407563;28;20278;-77
2024/01/04 02:04:39;;;;;;;21.03;11.03;;;-0.90;99.90;;;;;;10421259;28;20457;-77
2024/01/04 02:10:01;;;;;;;15.63;10.17;;;-1.00;1.00;;;;;;10402410;28;20210;-77
2024/01/04 02:15:22;;;;;;;18.03;11.20;;;-0.90;1.00;;;;;;10457153;28;20535;-78
2024/01/04 02:20:44;;;;;;;16.37;10.37;;;-1.00;1.00;;;;;;10403192;28;20269;-77
2024/01/04 02:26:05;;;;;;;15.90;10.23;;;-0.90;1.00;;;;;;10410411;28;20232;-76
2024/01/04 02:31:26;;;;;;;20.50;11.60;;;-0.80;1.00;;;;;;10431351;28;20228;-78
2024/01/04 02:36:48;;;;;;;17.57;11.10;;;-0.80;1.00;;;;;;10451002;28;20210;-79
2024/01/04 02:42:09;;;;;;;20.33;11.83;;;-0.90;1.00;;;;;;10453719;28;20551;-79
2024/01/04 02:47:30;;;;;;;19.83;12.40;;;-0.80;99.90;;;;;;10434425;28;20417;-78
2024/01/04 02:52:51;;;;;;;21.60;11.73;;;-0.80;1.00;;;;;;10426371;28;20199;-78
2024/01/04 02:58:13;;;;;;;22.33;12.60;;;-0.80;1.00;;;;;;10447582;28;20208;-79
2024/01/04 03:03:34;;;;;;;20.27;12.37;;;-0.80;1.00;;;;;;10443401;28;20244;-78
2024/01/04 03:08:55;;;;;;;19.27;11.90;;;-0.90;1.00;;;;;;10423020;28;20241;-76
2024/01/04 03:14:16;;;;;;;19.97;12.40;;;-0.90;1.00;;;;;;10450159;28;20296;-77
2024/01/04 03:19:37;;;;;;;23.87;13.33;;;-0.90;1.00;;;;;;10431432;28;20497;-78
2024/01/04 03:24:58;;;;;;;20.20;11.93;;;-1.00;1.00;;;;;;10428205;28;20245;-78
2024/01/04 03:30:20;;;;;;;19.10;12.17;;;-1.00;67.30;;;;;;10431118;28;20202;-78
2024/01/04 03:35:41;;;;;;;25.60;13.03;;;-1.00;1.00;;;;;;10436323;28;20205;-77
2024/01/04 03:41:03;;;;;;;21.67;12.77;;;-0.90;1.00;;;;;;10412661;28;20276;-77
2024/01/04 03:46:24;;;;;;;17.70;11.60;;;-0.90;1.00;;;;;;10395736;28;20232;-76
2024/01/04 03:51:45;;;;;;;19.67;11.60;;;-0.90;1.00;;;;;;10410572;28;20441;-76
2024/01/04 03:57:06;;;;;;;18.33;10.87;;;-0.80;27.00;;;;;;10395653;28;20314;-76
2024/01/04 04:02:27;;;;;;;19.07;12.10;;;-0.80;1.00;;;;;;10421016;28;20204;-78
2024/01/04 04:07:49;;;;;;;17.07;10.50;;;-0.80;1.00;;;;;;10445804;28;20272;-77
2024/01/04 04:13:10;;;;;;;15.93;10.50;;;-0.80;1.00;;;;;;10433617;28;20265;-77
2024/01/04 04:18:31;;;;;;;13.33;8.77;;;-0.80;32.00;;;;;;10446093;28;20503;-79
2024/01/04 04:23:52;;;;;;;15.77;10.13;;;-0.80;1.00;;;;;;10423320;28;20252;-77
2024/01/04 04:29:13;;;;;;;13.77;9.47;;;-0.90;1.00;;;;;;10462402;28;20421;-76
2024/01/04 04:34:35;;;;;;;30.70;16.70;;;-0.90;1.00;;;;;;10435455;28;20207;-76
2024/01/04 04:39:56;;;;;;;67.57;29.33;;;-0.90;1.00;;;;;;10455908;28;20195;-78
2024/01/04 04:45:18;;;;;;;91.10;47.27;;;-0.90;1.00;;;;;;10444739;28;20525;-80
2024/01/04 04:50:39;;;;;;;28.30;16.40;;;-0.90;1.00;;;;;;10424028;28;20203;-79
2024/01/04 04:56:00;;;;;;;39.40;30.33;;;-0.90;1.00;;;;;;10429966;28;20247;-79
2024/01/04 05:01:21;;;;;;;25.97;17.03;;;-0.90;1.00;;;;;;10454452;28;20309;-79
2024/01/04 05:06:42;;;;;;;24.33;15.37;;;-0.90;1.00;;;;;;10438763;28;20252;-77
2024/01/04 05:12:04;;;;;;;29.43;17.10;;;-0.90;99.90;;;;;;10435326;28;20247;-78
2024/01/04 05:17:25;;;;;;;31.77;20.57;;;-0.80;1.00;;;;;;10411066;28;20207;-77
2024/01/04 05:22:47;;;;;;;41.40;24.00;;;-0.80;1.00;;;;;;10439523;28;20552;-78
2024/01/04 05:28:09;;;;;;;22.93;15.73;;;-0.70;1.00;;;;;;10402580;28;20226;-77
2024/01/04 05:33:30;;;;;;;26.37;19.77;;;-0.80;1.00;;;;;;10420804;28;20273;-77
2024/01/04 05:38:52;;;;;;;30.33;23.07;;;-0.80;1.00;;;;;;10408162;28;20339;-76
2024/01/04 05:44:13;;;;;;;22.50;15.40;;;-0.80;1.00;;;;;;10413279;28;20409;-76
2024/01/04 05:49:35;;;;;;;20.83;12.80;;;-0.80;1.00;;;;;;10404510;28;20199;-78
2024/01/04 05:54:56;;;;;;;25.13;14.67;;;-0.80;1.00;;;;;;10401007;28;20227;-77
2024/01/04 06:00:17;;;;;;;29.03;17.50;;;-0.80;1.00;;;;;;10414663;28;20527;-77
2024/01/04 06:05:39;;;;;;;22.17;13.73;;;-0.80;99.90;;;;;;10411854;28;20226;-78
2024/01/04 06:11:00;;;;;;;37.93;19.57;;;-0.90;1.00;;;;;;10413980;28;20222;-77
2024/01/04 06:16:22;;;;;;;34.37;19.90;;;-0.90;1.00;;;;;;10428090;28;20206;-78
2024/01/04 06:21:43;;;;;;;26.90;16.80;;;-0.90;1.00;;;;;;10409144;28;20205;-77
2024/01/04 06:27:04;;;;;;;26.07;17.13;;;-0.90;11.80;;;;;;10409650;28;20234;-77
2024/01/04 06:32:26;;;;;;;29.93;18.43;;;-1.00;1.00;;;;;;10441171;28;20198;-77
2024/01/04 06:37:47;;;;;;;32.33;18.73;;;-1.00;1.00;;;;;;10440638;28;20282;-77
2024/01/04 06:43:08;;;;;;;29.10;18.00;;;-1.00;1.00;;;;;;10443078;28;20257;-77
2024/01/04 06:48:30;;;;;;;29.50;19.20;;;-1.00;1.00;;;;;;10456868;28;20211;-77
2024/01/04 06:53:51;;;;;;;38.00;21.60;;;-0.90;99.90;;;;;;10437515;28;20262;-77
2024/01/04 06:59:12;;;;;;;36.20;21.50;;;-0.90;1.00;;;;;;10416652;28;20217;-78
2024/01/04 07:04:34;;;;;;;35.00;21.27;;;-0.90;99.90;;;;;;10425264;28;20231;-78
2024/01/04 07:09:55;;;;;;;45.73;24.63;;;-0.90;1.00;;;;;;10429859;28;20481;-78
2024/01/04 07:15:17;;;;;;;34.27;20.73;;;-0.90;99.90;;;;;;10440286;28;20401;-78
2024/01/04 07:20:41;;;;;;;29.90;18.50;;;-1.00;99.90;;;;;;10405829;28;20282;-78
2024/01/04 07:26:02;;;;;;;56.17;30.17;;;-1.00;99.90;;;;;;10415261;28;20576;-79
2024/01/04 07:31:24;;;;;;;76.60;39.40;;;-0.80;99.90;;;;;;10427030;28;20282;-79
2024/01/04 07:36:45;;;;;;;78.97;39.97;;;-0.60;99.90;;;;;;10403889;28;20500;-79
2024/01/04 07:42:07;;;;;;;64.93;29.60;;;-0.50;99.90;;;;;;10423178;28;20487;-78
2024/01/04 07:47:28;;;;;;;51.87;24.13;;;-0.40;1.00;;;;;;10429445;28;20264;-78
2024/01/04 07:52:49;;;;;;;61.23;25.13;;;-0.30;1.00;;;;;;10403832;28;20199;-78
2024/01/04 07:58:11;;;;;;;64.73;28.07;;;-0.30;1.00;;;;;;10433296;28;20386;-78
2024/01/04 08:03:32;;;;;;;74.17;29.90;;;-0.20;26.40;;;;;;10419538;28;20211;-79
2024/01/04 08:08:54;;;;;;;73.97;29.17;;;-0.10;99.90;;;;;;10431920;28;20202;-79
2024/01/04 08:14:15;;;;;;;78.73;29.33;;;0.00;99.90;;;;;;10412391;28;20494;-79
2024/01/04 08:19:36;;;;;;;54.30;22.80;;;0.00;99.90;;;;;;10396778;28;20195;-78
2024/01/04 08:24:57;;;;;;;62.23;26.20;;;-0.10;1.00;;;;;;10420032;28;20231;-78
2024/01/04 08:30:19;;;;;;;75.33;29.20;;;0.00;1.00;;;;;;10412539;28;20192;-78
2024/01/04 08:35:41;;;;;;;78.60;31.40;;;0.00;1.00;;;;;;10395433;28;20425;-78
2024/01/04 08:41:02;;;;;;;98.63;36.97;;;0.10;1.00;;;;;;10427949;28;20204;-78
2024/01/04 08:46:24;;;;;;;141.13;43.97;;;0.10;1.00;;;;;;10398592;28;20302;-82
2024/01/04 08:51:45;;;;;;;97.97;37.33;;;0.10;1.00;;;;;;10453443;28;20293;-80
2024/01/04 08:57:07;;;;;;;65.03;26.97;;;0.00;1.00;;;;;;10423753;28;20272;-79
2024/01/04 09:02:28;;;;;;;48.40;23.17;;;0.20;85.00;;;;;;10467776;28;20245;-80
2024/01/04 09:07:49;;;;;;;68.10;25.40;;;0.20;99.90;;;;;;10433080;28;20226;-78
2024/01/04 09:13:10;;;;;;;57.80;24.00;;;0.20;1.00;;;;;;10428154;28;20206;-78
2024/01/04 09:18:35;;;;;;;58.40;25.57;;;0.40;1.00;;;;;;10431983;28;20283;-77
2024/01/04 09:23:57;;;;;;;74.30;29.20;;;0.40;1.00;;;;;;10417961;28;20416;-77
2024/01/04 09:29:18;;;;;;;64.33;28.70;;;0.50;1.00;;;;;;10404392;28;20241;-82
2024/01/04 09:34:39;;;;;;;60.50;26.10;;;0.60;99.90;;;;;;10451163;28;20210;-83
2024/01/04 09:40:00;;;;;;;37.87;20.33;;;0.60;1.00;;;;;;10402862;28;20239;-79
2024/01/04 09:45:22;;;;;;;51.17;24.43;;;0.70;99.90;;;;;;10417209;28;20569;-83
2024/01/04 09:50:45;;;;;;;49.97;22.70;;;0.60;34.90;;;;;;10408980;28;20200;-79
2024/01/04 09:56:08;;;;;;;43.77;23.03;;;0.70;17.20;;;;;;10430734;28;20406;-77
2024/01/04 10:01:34;;;;;;;43.90;21.80;;;0.70;1.00;;;;;;10418530;28;20192;-78
2024/01/04 10:06:59;;;;;;;49.27;23.17;;;0.70;1.00;;;;;;10439352;28;20254;-79
2024/01/04 10:12:21;;;;;;;44.10;19.90;;;0.70;1.00;;;;;;10433805;28;20537;-78
2024/01/04 10:17:45;;;;;;;36.23;20.47;;;0.70;1.00;;;;;;10433257;28;20257;-79
2024/01/04 10:23:08;;;;;;;25.33;15.33;;;0.80;99.90;;;;;;10433068;28;20254;-78
2024/01/04 10:28:30;;;;;;;34.63;19.93;;;0.80;1.00;;;;;;10397659;28;20238;-79
2024/01/04 10:33:59;;;;;;;36.53;18.80;;;0.80;99.90;;;;;;10433833;28;20191;-78
2024/01/04 10:39:20;;;;;;;34.43;18.77;;;0.60;99.90;;;;;;10384940;28;20212;-80
2024/01/04 10:44:45;;;;;;;48.57;23.33;;;0.70;1.00;;;;;;10445203;28;20227;-79
2024/01/04 10:50:11;;;;;;;38.00;19.37;;;0.70;1.00;;;;;;10415772;28;20205;-78
2024/01/04 10:55:33;;;;;;;40.27;19.50;;;0.70;1.00;;;;;;10419124;28;20302;-78
2024/01/04 11:00:55;;;;;;;33.20;17.63;;;0.80;1.00;;;;;;10377048;28;20196;-78
2024/01/04 11:06:17;;;;;;;31.80;15.53;;;0.80;1.00;;;;;;10390644;28;20231;-83
2024/01/04 11:11:39;;;;;;;25.03;13.70;;;0.70;1.00;;;;;;10413365;28;20215;-78
2024/01/04 11:17:29;;;;;;;76.80;31.43;;;0.60;1.00;;;;;;10458094;28;20211;-78
2024/01/04 11:22:56;;;;;;;61.40;24.13;;;0.60;1.00;;;;;;10434034;28;20210;-77
2024/01/04 11:28:18;;;;;;;21.80;12.03;;;0.60;1.00;;;;;;10401582;28;20437;-78
2024/01/04 11:33:43;;;;;;;19.77;8.90;;;0.50;1.00;;;;;;10430367;28;20197;-77
2024/01/04 11:39:05;;;;;;;26.97;10.90;;;0.50;1.00;;;;;;10431056;28;20204;-78
2024/01/04 11:44:35;;;;;;;20.90;10.37;;;0.50;50.70;;;;;;10475267;28;20228;-78
2024/01/04 11:50:00;;;;;;;36.67;16.20;;;0.50;99.90;;;;;;10429873;28;20206;-80
2024/01/04 11:55:25;;;;;;;46.30;18.03;;;0.60;1.00;;;;;;10415745;28;20304;-78
2024/01/04 12:00:51;;;;;;;28.70;14.40;;;0.50;1.00;;;;;;10422291;28;20227;-76
2024/01/04 12:06:13;;;;;;;18.00;11.23;;;0.40;9.40;;;;;;10431091;28;20234;-78
2024/01/04 12:11:35;;;;;;;15.77;10.20;;;0.40;1.00;;;;;;10412319;28;20253;-77
2024/01/04 12:16:59;;;;;;;17.77;11.47;;;0.30;99.90;;;;;;10429709;28;20505;-77
2024/01/04 12:22:21;;;;;;;20.47;11.03;;;0.10;1.00;;;;;;10429994;28;20524;-78
2024/01/04 12:27:43;;;;;;;21.70;10.63;;;0.10;1.00;;;;;;10421847;28;20230;-78
2024/01/04 12:33:06;;;;;;;17.93;10.13;;;0.10;99.90;;;;;;10428242;28;20226;-79
2024/01/04 12:38:28;;;;;;;17.30;9.87;;;-0.10;99.90;;;;;;10418523;28;20493;-80
2024/01/04 12:43:50;;;;;;;11.67;7.60;;;-0.10;1.00;;;;;;10437830;28;20228;-78
2024/01/04 12:49:12;;;;;;;15.50;8.87;;;-0.20;1.00;;;;;;10438310;28;20209;-77
2024/01/04 12:54:35;;;;;;;15.33;9.70;;;-0.20;1.00;;;;;;10422657;28;20243;-80
2024/01/04 12:59:57;;;;;;;16.83;10.07;;;-0.30;1.00;;;;;;10386224;28;20201;-78
2024/01/04 13:05:19;;;;;;;22.80;10.30;;;-0.30;73.00;;;;;;10433427;28;20220;-78
2024/01/04 13:10:41;;;;;;;16.77;9.77;;;-0.30;85.30;;;;;;10409115;28;20282;-80
2024/01/04 13:16:04;;;;;;;20.13;10.27;;;-0.40;1.00;;;;;;10414999;28;20210;-80
2024/01/04 13:21:25;;;;;;;41.23;17.60;;;-0.40;1.00;;;;;;10412242;28;20276;-81
2024/01/04 13:26:46;;;;;;;16.63;9.67;;;-0.40;32.20;;;;;;10402254;28;20241;-87
2024/01/04 13:32:08;;;;;;;25.93;12.80;;;-0.50;1.00;;;;;;10433246;28;20203;-78
2024/01/04 13:37:29;;;;;;;25.67;13.97;;;-0.60;1.50;;;;;;10434761;28;20294;-80
2024/01/04 13:42:50;;;;;;;18.60;10.87;;;-0.70;1.00;;;;;;10434929;28;20247;-80
2024/01/04 13:48:12;;;;;;;18.27;10.20;;;-0.80;90.00;;;;;;10420402;28;20223;-80
2024/01/04 13:53:33;;;;;;;24.73;12.53;;;-0.80;1.00;;;;;;10436024;28;20226;-86
2024/01/04 13:58:54;;;;;;;21.87;13.77;;;-0.90;1.00;;;;;;10410990;28;20211;-80
2024/01/04 14:04:15;;;;;;;15.80;9.20;;;-0.90;1.00;;;;;;10425913;28;20218;-80
2024/01/04 14:09:37;;;;;;;17.77;9.30;;;-1.00;1.00;;;;;;10418106;28;20204;-80
2024/01/04 14:14:59;;;;;;;22.93;12.10;;;-1.00;99.90;;;;;;10434184;28;20205;-79
2024/01/04 14:20:23;;;;;;;18.83;11.50;;;-0.90;1.00;;;;;;10433520;28;20205;-80
2024/01/04 14:25:45;;;;;;;13.93;8.63;;;-1.00;99.90;;;;;;10433255;28;20237;-80
2024/01/04 14:31:06;;;;;;;15.37;9.13;;;-1.00;52.50;;;;;;10418551;28;20200;-80
2024/01/04 14:36:27;;;;;;;18.47;9.30;;;-1.00;85.60;;;;;;10430075;28;20215;-81
2024/01/04 14:41:50;;;;;;;20.77;12.13;;;-1.30;99.90;;;;;;10432968;28;20224;-80
2024/01/04 14:47:11;;;;;;;23.17;14.83;;;-1.50;1.00;;;;;;10407583;28;20257;-80
2024/01/04 14:52:32;;;;;;;24.13;13.03;;;-1.30;43.00;;;;;;10391716;28;20247;-80
2024/01/04 14:57:53;;;;;;;26.63;15.07;;;-1.20;1.00;;;;;;10442812;28;20198;-82
2024/01/04 15:03:14;;;;;;;27.97;15.93;;;-1.40;1.00;;;;;;10409552;28;20212;-79
2024/01/04 15:08:36;;;;;;;66.47;34.13;;;-1.30;1.00;;;;;;10418563;28;20222;-80
2024/01/04 15:13:59;;;;;;;109.57;52.93;;;-1.50;92.50;;;;;;10418130;28;20205;-80
2024/01/04 15:19:20;;;;;;;38.87;23.83;;;-1.50;1.00;;;;;;10431504;28;20510;-80
2024/01/04 15:24:41;;;;;;;36.20;18.67;;;-1.60;79.30;;;;;;10430957;28;20382;-80
2024/01/04 15:30:03;;;;;;;26.03;15.00;;;;;;;;;;10430200;28;20212;-79
2024/01/04 15:35:26;;;;;;;25.60;14.37;;;-1.50;99.90;;;;;;10413000;28;20492;-80
2024/01/04 15:40:47;;;;;;;36.80;18.40;;;-1.40;99.90;;;;;;10414915;28;20204;-79
2024/01/04 15:46:09;;;;;;;30.33;16.37;;;-1.40;1.00;;;;;;10420988;28;20312;-79
2024/01/04 15:51:31;;;;;;;30.93;16.33;;;-1.60;39.80;;;;;;10439767;28;20290;-79
2024/01/04 15:56:52;;;;;;;30.47;15.37;;;-1.50;2.60;;;;;;10437756;28;20297;-79
2024/01/04 16:02:13;;;;;;;30.13;17.03;;;-1.50;1.00;;;;;;10386915;28;20259;-81
2024/01/04 16:07:40;;;;;;;33.10;16.97;;;-1.50;1.00;;;;;;10422955;28;20219;-80
2024/01/04 16:13:06;;;;;;;30.47;15.10;;;-1.70;15.00;;;;;;10440942;28;20219;-79
2024/01/04 16:18:28;;;;;;;34.00;15.10;;;-1.80;99.90;;;;;;10404537;28;20431;-78
2024/01/04 16:23:49;;;;;;;36.43;14.30;;;-1.80;81.30;;;;;;10402055;28;20196;-79
2024/01/04 16:29:10;;;;;;;38.23;16.37;;;-1.80;10.10;;;;;;10460135;28;20262;-78
2024/01/04 16:34:32;;;;;;;20.83;11.00;;;-1.70;99.90;;;;;;10432189;28;20235;-78
2024/01/04 16:39:55;;;;;;;29.93;12.83;;;-1.70;1.00;;;;;;10406627;28;20264;-79
2024/01/04 16:45:16;;;;;;;20.97;11.83;;;-1.60;1.00;;;;;;10406473;28;20217;-79
2024/01/04 16:50:37;;;;;;;28.87;12.77;;;-1.60;11.60;;;;;;10432924;28;20200;-79
2024/01/04 16:55:59;;;;;;;22.83;11.33;;;-1.50;1.00;;;;;;10435292;28;20230;-79
2024/01/04 17:01:20;;;;;;;16.17;8.33;;;-1.60;1.00;;;;;;10462635;28;20223;-79
2024/01/04 17:06:41;;;;;;;25.93;11.97;;;-1.40;1.00;;;;;;10447222;28;20233;-79
2024/01/04 17:12:04;;;;;;;21.70;10.07;;;-1.40;1.00;;;;;;10440002;28;20198;-78
2024/01/04 17:17:26;;;;;;;29.00;13.60;;;-1.30;1.00;;;;;;10427663;28;20511;-78
2024/01/04 17:22:47;;;;;;;28.40;14.70;;;-1.40;1.00;;;;;;10455552;28;20181;-79
2024/01/04 17:28:09;;;;;;;29.60;14.57;;;-1.40;1.00;;;;;;10403270;28;20213;-78
2024/01/04 17:33:30;;;;;;;35.47;14.03;;;-1.40;1.00;;;;;;10440705;28;20196;-78
2024/01/04 17:38:52;;;;;;;31.33;16.73;;;-1.50;1.00;;;;;;10413616;28;20209;-78
2024/01/04 17:44:13;;;;;;;21.93;10.90;;;-1.50;1.00;;;;;;10410931;28;20228;-78
2024/01/04 17:49:37;;;;;;;18.37;9.87;;;-1.60;1.00;;;;;;10399347;28;20378;-78
2024/01/04 17:55:00;;;;;;;25.03;12.27;;;-1.50;1.00;;;;;;10384862;28;20233;-78
2024/01/04 18:00:21;;;;;;;15.47;9.37;;;-1.60;1.00;;;;;;10385106;28;20197;-78
2024/01/04 18:05:44;;;;;;;14.37;8.57;;;-1.70;1.00;;;;;;10402886;28;20594;-78
2024/01/04 18:11:05;;;;;;;18.40;8.40;;;-1.80;1.00;;;;;;10427827;28;20204;-78
2024/01/04 18:16:27;;;;;;;14.67;8.20;;;-1.60;1.00;;;;;;10425761;28;20204;-78
2024/01/04 18:21:48;;;;;;;17.23;9.50;;;-1.70;1.00;;;;;;10441151;28;20234;-78
2024/01/04 18:27:09;;;;;;;18.03;9.33;;;-1.80;1.00;;;;;;10439670;28;20291;-78
2024/01/04 18:32:30;;;;;;;13.37;7.93;;;-1.90;1.00;;;;;;10424456;28;20284;-79
2024/01/04 18:37:51;;;;;;;12.03;6.80;;;-1.90;99.90;;;;;;10403659;28;20207;-78
2024/01/04 18:43:13;;;;;;;12.43;6.60;;;-1.70;1.00;;;;;;10397366;28;20221;-79
2024/01/04 18:48:35;;;;;;;12.03;6.97;;;-1.60;1.00;;;;;;10384314;28;20531;-78
2024/01/04 18:53:56;;;;;;;12.43;6.93;;;-1.70;1.00;;;;;;10430477;28;20519;-78
2024/01/04 18:59:17;;;;;;;10.73;5.70;;;-1.80;1.00;;;;;;10399538;28;20207;-79
2024/01/04 19:04:38;;;;;;;14.93;7.17;;;-1.80;1.00;;;;;;10422522;28;20220;-79
2024/01/04 19:10:00;;;;;;;13.37;7.17;;;-1.80;27.30;;;;;;10422641;28;20208;-78
2024/01/04 19:15:21;;;;;;;9.67;5.43;;;-1.60;1.00;;;;;;10423009;28;20206;-79
2024/01/04 19:20:44;;;;;;;11.83;6.27;;;-1.60;1.00;;;;;;10405721;28;20383;-80
2024/01/04 19:26:09;;;;;;;12.67;6.67;;;-1.60;1.00;;;;;;10416316;28;20414;-79
2024/01/04 19:31:31;;;;;;;14.30;8.43;;;-1.70;1.00;;;;;;10417711;28;20212;-79
2024/01/04 19:36:53;;;;;;;10.80;6.67;;;-1.70;1.00;;;;;;10408903;28;20372;-78
2024/01/04 19:42:14;;;;;;;10.10;5.87;;;-1.70;1.00;;;;;;10395252;28;20201;-78
2024/01/04 19:47:35;;;;;;;12.93;7.87;;;-1.60;1.00;;;;;;10434930;28;20215;-78
2024/01/04 19:52:57;;;;;;;14.77;7.40;;;-1.50;1.00;;;;;;10412104;28;20462;-79
2024/01/04 19:58:18;;;;;;;15.03;7.20;;;-1.50;1.00;;;;;;10422024;28;20206;-79
2024/01/04 20:03:39;;;;;;;8.57;5.50;;;-1.50;99.90;;;;;;10436388;28;20243;-78
2024/01/04 20:09:00;;;;;;;12.33;6.57;;;-1.40;99.90;;;;;;10421383;28;20231;-78
2024/01/04 20:14:22;;;;;;;8.03;4.87;;;-1.40;99.90;;;;;;10436362;28;20188;-78
2024/01/04 20:19:43;;;;;;;11.83;5.93;;;-1.40;99.90;;;;;;10407587;28;20200;-78
2024/01/04 20:25:04;;;;;;;11.60;6.47;;;-1.50;99.90;;;;;;10419108;28;20233;-79
2024/01/04 20:30:25;;;;;;;16.47;7.47;;;-1.50;1.00;;;;;;10421915;28;20201;-79
2024/01/04 20:35:47;;;;;;;9.90;5.43;;;-1.50;1.00;;;;;;10434750;28;20206;-79
2024/01/04 20:41:08;;;;;;;23.57;7.93;;;-1.40;1.00;;;;;;10435269;28;20243;-78
2024/01/04 20:46:29;;;;;;;25.43;9.20;;;-1.30;1.00;;;;;;10425859;28;20248;-78
2024/01/04 20:51:51;;;;;;;15.90;4.70;;;-1.30;1.00;;;;;;10418512;28;20217;-78
2024/01/04 20:57:12;;;;;;;23.13;8.43;;;-1.20;99.90;;;;;;10402814;28;20590;-78
2024/01/04 21:02:33;;;;;;;42.07;12.00;;;-1.10;99.90;;;;;;10402351;28;20197;-79
2024/01/04 21:07:54;;;;;;;27.27;9.17;;;-1.10;99.90;;;;;;10402332;28;20412;-79
2024/01/04 21:13:16;;;;;;;24.03;8.53;;;-1.10;1.00;;;;;;10402052;28;20190;-80
2024/01/04 21:18:37;;;;;;;17.03;7.97;;;-1.10;1.00;;;;;;10386977;28;20196;-78
2024/01/04 21:23:59;;;;;;;20.93;8.03;;;-1.00;99.90;;;;;;10417897;28;20201;-78
2024/01/04 21:29:20;;;;;;;15.40;6.40;;;-1.10;1.00;;;;;;10442403;28;20270;-79
2024/01/04 21:34:41;;;;;;;17.90;6.53;;;-1.10;99.90;;;;;;10455052;28;20200;-79
2024/01/04 21:40:03;;;;;;;18.77;7.97;;;-1.10;1.00;;;;;;10442033;28;20220;-79
2024/01/04 21:45:24;;;;;;;21.93;7.27;;;-1.00;99.90;;;;;;10440447;28;20518;-78
2024/01/04 21:50:48;;;;;;;23.80;7.57;;;-1.00;1.00;;;;;;10411231;28;20280;-79
2024/01/04 21:56:10;;;;;;;18.20;7.53;;;-0.90;99.90;;;;;;10399795;28;20226;-79
2024/01/04 22:01:38;;;;;;;10.30;4.90;;;-0.80;1.00;;;;;;10399755;28;20432;-79
2024/01/04 22:06:59;;;;;;;9.50;4.80;;;-0.80;99.90;;;;;;10399940;28;20454;-79
2024/01/04 22:12:20;;;;;;;8.70;4.60;;;-1.00;1.00;;;;;;10398770;28;20265;-78
2024/01/04 22:17:42;;;;;;;9.70;4.77;;;-0.90;1.00;;;;;;10399226;28;20202;-78
2024/01/04 22:23:03;;;;;;;7.33;3.73;;;-1.00;1.00;;;;;;10407364;28;20221;-78
2024/01/04 22:28:24;;;;;;;7.67;3.43;;;-0.90;99.90;;;;;;10440048;28;20402;-78
2024/01/04 22:33:45;;;;;;;8.70;3.60;;;-0.90;99.90;;;;;;10440003;28;20198;-80
2024/01/04 22:39:06;;;;;;;5.43;2.93;;;-0.90;1.00;;;;;;10438558;28;20244;-78
2024/01/04 22:44:28;;;;;;;6.40;3.63;;;-0.90;1.00;;;;;;10424630;28;20419;-78
2024/01/04 22:49:49;;;;;;;8.67;3.97;;;-0.90;1.00;;;;;;10427666;28;20244;-78
2024/01/04 22:55:10;;;;;;;4.33;2.40;;;-0.90;1.00;;;;;;10411701;28;20557;-78
2024/01/04 23:00:32;;;;;;;8.37;3.27;;;-0.80;1.00;;;;;;10396555;28;20232;-78
2024/01/04 23:05:53;;;;;;;8.87;4.10;;;-0.80;1.00;;;;;;10396277;28;20449;-79
2024/01/04 23:11:14;;;;;;;3.80;2.50;;;-0.80;1.00;;;;;;10410477;28;20503;-78
2024/01/04 23:16:37;;;;;;;4.77;3.20;;;-0.80;1.00;;;;;;10395969;28;20277;-78
2024/01/04 23:21:58;;;;;;;5.57;2.90;;;-0.80;1.00;;;;;;10400819;28;20202;-78
2024/01/04 23:27:19;;;;;;;6.33;2.57;;;-0.80;99.90;;;;;;10434514;28;20284;-79
2024/01/04 23:32:41;;;;;;;4.90;2.43;;;-0.90;99.90;;;;;;10422887;28;20209;-78
2024/01/04 23:38:02;;;;;;;5.00;1.93;;;-0.90;99.90;;;;;;10422647;28;20219;-78
2024/01/04 23:43:23;;;;;;;5.10;2.97;;;-1.00;99.90;;;;;;10435970;28;20205;-78
2024/01/04 23:48:45;;;;;;;2.77;1.63;;;-1.00;99.90;;;;;;10447630;28;20388;-78
2024/01/04 23:54:06;;;;;;;2.90;1.83;;;-1.00;99.90;;;;;;10430684;28;20255;-79
2024/01/04 23:59:27;;;;;;;2.33;1.50;;;-1.10;99.90;;;;;;10436816;28;20189;-79
